createdAt,value
2022-12-08T00:02:32.192Z,0.73
2022-12-08T00:05:53.285Z,0.64
2022-12-08T00:09:14.031Z,0.62
2022-12-08T00:12:16.759Z,0.17
2022-12-08T00:15:18.972Z,0.11
2022-12-08T00:18:21.471Z,0.37
2022-12-08T00:21:23.671Z,0.53
2022-12-08T00:24:32.502Z,0.52
2022-12-08T00:27:34.662Z,0.38
2022-12-08T00:30:40.261Z,0.59
2022-12-08T00:33:42.435Z,0.79
2022-12-08T00:36:45.115Z,0.75
2022-12-08T00:39:47.286Z,0.75
2022-12-08T00:42:49.799Z,0.92
2022-12-08T00:45:52.084Z,0.91
2022-12-08T00:48:54.589Z,0.45
2022-12-08T00:51:56.990Z,0.55
2022-12-08T00:54:59.549Z,0.67
2022-12-08T00:58:01.701Z,0.71
2022-12-08T01:01:10.796Z,0.63
2022-12-08T01:04:15.975Z,0.61
2022-12-08T01:07:18.502Z,0.49
2022-12-08T01:10:22.050Z,0.47
2022-12-08T01:13:24.565Z,0.46
2022-12-08T01:16:29.252Z,0.78
2022-12-08T01:19:31.926Z,0.75
2022-12-08T01:22:35.323Z,0.26
2022-12-08T01:25:38.052Z,0.14
2022-12-08T01:28:40.912Z,0.26
2022-12-08T01:31:43.635Z,-0.12
2022-12-08T01:34:45.754Z,-0.34
2022-12-08T01:37:50.233Z,-0.61
2022-12-08T01:40:52.392Z,-0.80
2022-12-08T01:44:08.383Z,-0.86
2022-12-08T01:47:12.062Z,-0.86
2022-12-08T01:50:18.206Z,-0.75
2022-12-08T01:53:26.647Z,-0.54
2022-12-08T01:56:40.543Z,-0.79
2022-12-08T01:59:48.601Z,-0.63
2022-12-08T02:03:04.816Z,-0.30
2022-12-08T02:06:08.209Z,-0.07
2022-12-08T02:09:10.987Z,-0.05
2022-12-08T02:12:13.779Z,-0.13
2022-12-08T02:15:16.349Z,-0.27
2022-12-08T02:18:40.858Z,-0.34
2022-12-08T02:22:02.848Z,-0.48
2022-12-08T02:25:17.608Z,-0.43
2022-12-08T02:28:50.539Z,-0.52
2022-12-08T02:32:02.537Z,-0.47
2022-12-08T02:35:28.235Z,-0.28
2022-12-08T02:38:47.798Z,-0.26
2022-12-08T02:42:22.960Z,-0.34
2022-12-08T02:45:33.878Z,-0.21
2022-12-08T02:48:36.103Z,0.11
2022-12-08T02:51:38.598Z,0.40
2022-12-08T02:54:46.493Z,0.46
2022-12-08T02:57:55.463Z,0.46
2022-12-08T03:01:31.972Z,0.19
2022-12-08T03:04:46.990Z,0.11
2022-12-08T03:08:15.277Z,0.08
2022-12-08T03:11:24.458Z,0.12
2022-12-08T03:14:28.396Z,0.08
2022-12-08T03:17:32.009Z,0.17
2022-12-08T03:20:35.271Z,0.29
2022-12-08T03:23:39.410Z,0.19
2022-12-08T03:26:46.445Z,0.26
2022-12-08T03:29:53.297Z,-0.39
2022-12-08T03:33:04.523Z,-0.16
2022-12-08T03:36:09.368Z,0.06
2022-12-08T03:39:11.679Z,-0.09
2022-12-08T03:42:14.171Z,0.21
2022-12-08T03:45:16.339Z,0.34
2022-12-08T03:48:18.797Z,0.48
2022-12-08T03:51:21.252Z,0.72
2022-12-08T03:54:24.390Z,0.65
2022-12-08T03:57:26.589Z,0.71
2022-12-08T04:00:29.152Z,0.29
2022-12-08T04:03:31.637Z,0.21
2022-12-08T04:06:33.841Z,0.41
2022-12-08T04:09:36.269Z,0.46
2022-12-08T04:12:38.435Z,0.71
2022-12-08T04:15:45.143Z,0.77
2022-12-08T04:18:47.389Z,0.77
2022-12-08T04:21:49.886Z,0.73
2022-12-08T04:24:52.044Z,0.81
2022-12-08T04:27:54.591Z,1.03
2022-12-08T04:30:56.842Z,0.66
2022-12-08T04:33:59.337Z,0.67
2022-12-08T04:37:01.472Z,0.64
2022-12-08T04:40:04.694Z,0.40
2022-12-08T04:43:07.070Z,0.79
2022-12-08T04:46:09.577Z,0.86
2022-12-08T04:49:11.898Z,1.06
2022-12-08T04:52:14.446Z,1.14
2022-12-08T04:55:17.777Z,1.11
2022-12-08T04:58:20.757Z,1.04
2022-12-08T05:01:22.996Z,1.27
2022-12-08T05:04:25.598Z,1.31
2022-12-08T05:07:27.981Z,1.44
2022-12-08T05:10:30.603Z,1.60
2022-12-08T05:13:33.034Z,1.45
2022-12-08T05:16:37.055Z,1.32
2022-12-08T05:19:39.272Z,1.31
2022-12-08T05:22:41.721Z,0.83
2022-12-08T05:25:43.825Z,0.81
2022-12-08T05:28:46.264Z,1.10
2022-12-08T05:31:48.517Z,1.15
2022-12-08T05:34:51.370Z,1.26
2022-12-08T05:37:53.997Z,1.07
2022-12-08T05:40:56.421Z,1.27
2022-12-08T05:43:58.665Z,1.71
2022-12-08T05:47:01.283Z,1.61
2022-12-08T05:50:04.243Z,1.41
2022-12-08T05:53:06.924Z,1.46
2022-12-08T05:56:09.020Z,1.46
2022-12-08T05:59:11.511Z,1.60
2022-12-08T06:02:13.958Z,1.64
2022-12-08T06:05:16.555Z,1.49
2022-12-08T06:08:18.817Z,1.43
2022-12-08T06:11:28.226Z,1.47
2022-12-08T06:14:30.393Z,1.46
2022-12-08T06:17:32.876Z,1.67
2022-12-08T06:20:35.349Z,1.39
2022-12-08T06:23:38.864Z,1.23
2022-12-08T06:26:41.504Z,1.33
2022-12-08T06:29:44.385Z,1.64
2022-12-08T06:32:46.522Z,1.60
2022-12-08T06:35:49.093Z,1.69
2022-12-08T06:38:51.734Z,1.74
2022-12-08T06:42:12.877Z,1.65
2022-12-08T06:45:17.394Z,1.89
2022-12-08T06:48:19.791Z,1.84
2022-12-08T06:51:23.522Z,1.68
2022-12-08T06:54:26.524Z,1.75
2022-12-08T06:57:28.845Z,1.83
2022-12-08T07:00:31.735Z,1.83
2022-12-08T07:03:35.967Z,1.87
2022-12-08T07:06:38.607Z,1.95
2022-12-08T07:09:40.818Z,2.12
2022-12-08T07:12:45.317Z,2.09
2022-12-08T07:15:47.532Z,2.15
2022-12-08T07:18:50.189Z,2.23
2022-12-08T07:21:52.312Z,2.19
2022-12-08T07:24:54.757Z,2.23
2022-12-08T07:27:56.960Z,2.32
2022-12-08T07:30:59.869Z,2.66
2022-12-08T07:34:02.160Z,2.58
2022-12-08T07:37:04.612Z,2.43
2022-12-08T07:40:09.378Z,2.73
2022-12-08T07:43:12.081Z,2.85
2022-12-08T07:46:16.501Z,2.80
2022-12-08T07:49:19.134Z,2.99
2022-12-08T07:52:21.303Z,3.11
2022-12-08T07:55:23.887Z,3.06
2022-12-08T07:58:26.321Z,3.31
2022-12-08T08:01:31.581Z,3.11
2022-12-08T08:04:34.069Z,3.22
2022-12-08T08:07:37.228Z,3.50
2022-12-08T08:10:39.728Z,3.56
2022-12-08T08:13:41.873Z,3.64
2022-12-08T08:16:46.838Z,4.06
2022-12-08T08:19:49.121Z,4.23
2022-12-08T08:22:52.453Z,4.20
2022-12-08T08:25:55.040Z,4.31
2022-12-08T08:28:59.073Z,4.46
2022-12-08T08:32:01.331Z,4.66
2022-12-08T08:35:04.869Z,4.93
2022-12-08T08:38:07.074Z,4.81
2022-12-08T08:41:10.899Z,4.77
2022-12-08T08:44:15.034Z,4.99
2022-12-08T08:47:17.539Z,5.26
2022-12-08T08:50:19.857Z,5.45
2022-12-08T08:53:23.130Z,5.69
2022-12-08T08:56:25.603Z,5.44
2022-12-08T08:59:28.549Z,5.80
2022-12-08T09:02:30.853Z,5.86
2022-12-08T09:05:33.332Z,5.84
2022-12-08T09:08:35.381Z,5.75
2022-12-08T09:11:38.193Z,5.43
2022-12-08T09:14:40.327Z,5.57
2022-12-08T09:17:42.715Z,5.72
2022-12-08T09:20:44.809Z,5.84
2022-12-08T09:23:47.172Z,5.77
2022-12-08T09:26:49.446Z,5.48
2022-12-08T09:29:51.845Z,5.42
2022-12-08T09:32:54.330Z,5.43
2022-12-08T09:35:56.870Z,5.51
2022-12-08T09:38:58.987Z,5.63
2022-12-08T09:42:04.789Z,5.75
2022-12-08T09:45:14.165Z,5.64
2022-12-08T09:48:19.995Z,5.76
2022-12-08T09:51:28.531Z,5.66
2022-12-08T09:54:35.972Z,5.70
2022-12-08T09:57:38.825Z,5.61
2022-12-08T10:00:41.298Z,5.71
2022-12-08T10:03:43.828Z,6.03
2022-12-08T10:07:04.648Z,6.07
2022-12-08T10:10:33.992Z,5.84
2022-12-08T10:14:07.182Z,5.89
2022-12-08T10:17:24.872Z,6.06
2022-12-08T10:20:35.978Z,5.86
2022-12-08T10:23:41.094Z,5.91
2022-12-08T10:26:43.455Z,6.00
2022-12-08T10:29:45.977Z,6.04
2022-12-08T10:32:49.947Z,6.11
2022-12-08T10:35:56.269Z,6.20
2022-12-08T10:38:58.596Z,6.18
2022-12-08T10:42:15.538Z,6.16
2022-12-08T10:45:28.068Z,5.98
2022-12-08T10:48:34.253Z,5.87
2022-12-08T10:51:41.884Z,5.86
2022-12-08T10:54:44.593Z,5.68
2022-12-08T10:57:50.716Z,5.79
2022-12-08T11:01:00.852Z,5.83
2022-12-08T11:04:06.326Z,5.94
2022-12-08T11:07:13.720Z,6.04
2022-12-08T11:10:18.960Z,6.13
2022-12-08T11:13:23.669Z,6.00
2022-12-08T11:16:25.992Z,5.98
2022-12-08T11:19:28.860Z,5.77
2022-12-08T11:22:39.741Z,5.56
2022-12-08T11:25:42.404Z,5.27
2022-12-08T11:28:44.747Z,5.40
2022-12-08T11:31:53.164Z,5.48
2022-12-08T11:35:02.537Z,5.53
2022-12-08T11:38:21.053Z,5.46
2022-12-08T11:41:36.674Z,5.50
2022-12-08T11:44:47.581Z,5.33
2022-12-08T11:48:06.133Z,5.32
2022-12-08T11:51:27.065Z,5.23
2022-12-08T11:54:58.232Z,5.29
2022-12-08T11:58:24.242Z,5.61
2022-12-08T12:01:26.960Z,5.76
2022-12-08T12:04:42.310Z,5.58
2022-12-08T12:07:59.643Z,5.53
2022-12-08T12:11:40.690Z,5.68
2022-12-08T12:15:07.447Z,5.86
2022-12-08T12:18:24.958Z,5.86
2022-12-08T12:21:36.242Z,5.91
2022-12-08T12:24:39.388Z,5.92
2022-12-08T12:27:41.882Z,5.65
2022-12-08T12:30:54.043Z,5.53
2022-12-08T12:34:06.547Z,5.32
2022-12-08T12:37:13.492Z,5.35
2022-12-08T12:40:20.906Z,5.36
2022-12-08T12:43:30.637Z,5.21
2022-12-08T12:46:54.491Z,5.25
2022-12-08T12:50:35.071Z,5.37
2022-12-08T12:53:37.137Z,5.16
2022-12-08T12:56:52.890Z,5.19
2022-12-08T12:59:56.189Z,5.29
2022-12-08T13:02:59.498Z,5.18
2022-12-08T13:06:02.759Z,5.26
2022-12-08T13:09:07.264Z,5.20
2022-12-08T13:12:23.022Z,5.23
2022-12-08T13:15:25.462Z,5.23
2022-12-08T13:18:41.860Z,4.98
2022-12-08T13:21:44.652Z,5.00
2022-12-08T13:24:46.885Z,5.05
2022-12-08T13:27:54.306Z,4.95
2022-12-08T13:31:00.894Z,4.90
2022-12-08T13:34:13.428Z,4.88
2022-12-08T13:37:52.373Z,4.80
2022-12-08T13:40:58.505Z,4.75
2022-12-08T13:45:03.706Z,4.71
2022-12-08T13:48:13.794Z,4.72
2022-12-08T13:53:22.295Z,4.82
2022-12-08T13:56:05.573Z,5.03
2022-12-08T13:58:03.675Z,5.15
2022-12-08T14:01:12.468Z,5.04
2022-12-08T14:04:42.621Z,4.88
2022-12-08T14:07:42.786Z,4.68
2022-12-08T14:10:47.511Z,4.68
2022-12-08T14:13:51.401Z,4.61
2022-12-08T14:16:57.582Z,4.53
2022-12-08T14:20:19.675Z,4.49
2022-12-08T14:23:22.121Z,4.54
2022-12-08T14:26:24.302Z,4.48
2022-12-08T14:29:45.472Z,4.47
2022-12-08T14:32:50.137Z,4.29
2022-12-08T14:35:55.918Z,4.30
2022-12-08T14:38:58.192Z,4.32
2022-12-08T14:42:00.998Z,4.15
2022-12-08T14:45:11.574Z,4.21
2022-12-08T14:48:25.875Z,4.33
2022-12-08T14:51:32.030Z,4.32
2022-12-08T14:54:34.686Z,4.23
2022-12-08T14:57:37.171Z,4.24
2022-12-08T15:00:46.322Z,4.26
2022-12-08T15:03:51.472Z,4.23
2022-12-08T15:07:02.799Z,4.17
2022-12-08T15:10:17.065Z,4.17
2022-12-08T15:13:20.994Z,4.02
2022-12-08T15:16:32.138Z,4.00
2022-12-08T15:19:34.657Z,3.92
2022-12-08T15:22:36.773Z,3.88
2022-12-08T15:25:39.260Z,4.00
2022-12-08T15:28:41.508Z,4.18
2022-12-08T15:31:44.071Z,4.27
2022-12-08T15:34:46.600Z,4.32
2022-12-08T15:37:49.103Z,4.39
2022-12-08T15:40:52.561Z,4.31
2022-12-08T15:43:54.993Z,4.34
2022-12-08T15:46:59.146Z,4.35
2022-12-08T15:50:04.593Z,4.31
2022-12-08T15:53:10.391Z,4.12
2022-12-08T15:56:29.349Z,4.01
2022-12-08T15:59:31.920Z,3.98
2022-12-08T16:02:49.467Z,4.09
2022-12-08T16:06:50.813Z,4.21
2022-12-08T16:09:34.542Z,4.42
2022-12-08T16:16:21.677Z,4.48
2022-12-08T16:19:24.313Z,4.45
2022-12-08T16:22:54.198Z,4.46
2022-12-08T16:26:20.381Z,4.49
2022-12-08T16:29:19.802Z,4.44
2022-12-08T16:32:23.684Z,4.36
2022-12-08T16:35:25.883Z,4.33
2022-12-08T16:38:28.501Z,4.25
2022-12-08T16:41:49.479Z,4.12
2022-12-08T16:44:51.978Z,4.13
2022-12-08T16:47:59.285Z,4.12
2022-12-08T16:51:04.480Z,4.21
2022-12-08T16:54:06.598Z,4.28
2022-12-08T16:57:09.210Z,4.22
2022-12-08T17:00:14.769Z,4.10
2022-12-08T17:03:17.624Z,4.05
2022-12-08T17:06:19.998Z,4.09
2022-12-08T17:09:22.463Z,4.05
2022-12-08T17:12:24.887Z,4.08
2022-12-08T17:15:27.355Z,4.07
2022-12-08T17:18:29.490Z,4.11
2022-12-08T17:21:32.546Z,4.17
2022-12-08T17:24:34.740Z,4.18
2022-12-08T17:27:38.010Z,4.18
2022-12-08T17:30:40.145Z,4.36
2022-12-08T17:33:42.960Z,4.46
2022-12-08T17:36:45.149Z,4.46
2022-12-08T17:39:47.604Z,4.23
2022-12-08T17:42:49.799Z,4.15
2022-12-08T17:45:52.294Z,4.10
2022-12-08T17:48:54.495Z,4.02
2022-12-08T17:52:03.276Z,4.07
2022-12-08T17:55:06.102Z,4.06
2022-12-08T17:58:08.556Z,4.18
2022-12-08T18:01:11.588Z,4.18
2022-12-08T18:04:14.122Z,4.22
2022-12-08T18:07:16.257Z,4.25
2022-12-08T18:10:19.486Z,4.30
2022-12-08T18:13:21.679Z,4.10
2022-12-08T18:16:26.821Z,4.17
2022-12-08T18:19:28.995Z,4.09
2022-12-08T18:22:31.372Z,4.09
2022-12-08T18:25:33.442Z,4.22
2022-12-08T18:28:36.217Z,4.33
2022-12-08T18:31:38.374Z,4.36
2022-12-08T18:34:41.575Z,4.37
2022-12-08T18:37:43.769Z,4.46
2022-12-08T18:40:46.230Z,4.56
2022-12-08T18:43:48.668Z,4.46
2022-12-08T18:46:51.314Z,4.45
2022-12-08T18:49:53.490Z,4.46
2022-12-08T18:52:55.944Z,4.59
2022-12-08T18:55:58.221Z,4.54
2022-12-08T18:59:04.458Z,4.45
2022-12-08T19:02:07.148Z,4.54
2022-12-08T19:05:12.505Z,4.63
2022-12-08T19:08:14.789Z,4.53
2022-12-08T19:11:22.350Z,4.58
2022-12-08T19:14:28.114Z,4.56
2022-12-08T19:17:31.273Z,4.58
2022-12-08T19:20:33.409Z,4.49
2022-12-08T19:23:36.261Z,4.40
2022-12-08T19:26:38.594Z,4.51
2022-12-08T19:29:41.017Z,4.42
2022-12-08T19:32:43.272Z,4.38
2022-12-08T19:35:52.209Z,4.45
2022-12-08T19:39:15.318Z,4.57
2022-12-08T19:42:38.248Z,4.57
2022-12-08T19:45:40.642Z,4.36
2022-12-08T19:48:43.552Z,4.51
2022-12-08T19:51:45.677Z,4.53
2022-12-08T19:54:48.156Z,4.67
2022-12-08T19:57:51.297Z,4.49
2022-12-08T20:00:53.809Z,4.41
2022-12-08T20:03:56.203Z,4.48
2022-12-08T20:06:58.415Z,4.54
2022-12-08T20:10:02.435Z,4.51
2022-12-08T20:13:24.756Z,4.49
2022-12-08T20:16:27.412Z,4.66
2022-12-08T20:19:29.655Z,4.71
2022-12-08T20:22:32.098Z,4.63
2022-12-08T20:25:34.771Z,4.55
2022-12-08T20:28:37.542Z,4.54
2022-12-08T20:31:39.757Z,4.48
2022-12-08T20:34:42.323Z,4.35
2022-12-08T20:37:44.495Z,4.48
2022-12-08T20:40:47.522Z,4.48
2022-12-08T20:43:50.079Z,4.54
2022-12-08T20:46:52.535Z,4.47
2022-12-08T20:49:54.815Z,4.35
2022-12-08T20:52:57.404Z,4.48
2022-12-08T20:55:59.847Z,4.49
2022-12-08T20:59:02.446Z,4.44
2022-12-08T21:02:04.868Z,4.43
2022-12-08T21:05:08.927Z,4.44
2022-12-08T21:08:11.255Z,4.53
2022-12-08T21:11:13.962Z,4.49
2022-12-08T21:14:16.200Z,4.40
2022-12-08T21:17:18.727Z,4.38
2022-12-08T21:20:23.727Z,4.42
2022-12-08T21:23:26.201Z,4.48
2022-12-08T21:26:28.836Z,4.47
2022-12-08T21:29:31.591Z,4.54
2022-12-08T21:32:34.503Z,4.65
2022-12-08T21:35:37.604Z,4.61
2022-12-08T21:38:40.552Z,4.49
2022-12-08T21:42:01.943Z,4.28
2022-12-08T21:45:04.275Z,4.36
2022-12-08T21:48:11.500Z,4.25
2022-12-08T21:51:14.236Z,4.27
2022-12-08T21:54:19.200Z,4.09
2022-12-08T21:57:21.879Z,4.07
2022-12-08T22:00:24.774Z,4.07
2022-12-08T22:03:28.110Z,4.26
2022-12-08T22:06:30.813Z,4.21
2022-12-08T22:09:33.429Z,4.16
2022-12-08T22:12:36.904Z,4.13
2022-12-08T22:15:39.629Z,4.06
2022-12-08T22:18:42.515Z,4.13
2022-12-08T22:21:45.083Z,4.37
2022-12-08T22:24:47.533Z,4.39
2022-12-08T22:27:50.142Z,4.33
2022-12-08T22:30:52.459Z,4.26
2022-12-08T22:33:55.015Z,4.36
2022-12-08T22:36:57.140Z,4.45
2022-12-08T22:39:59.796Z,4.40
2022-12-08T22:43:01.886Z,4.11
2022-12-08T22:46:12.160Z,4.20
2022-12-08T22:49:14.923Z,4.24
2022-12-08T22:52:17.380Z,4.11
2022-12-08T22:55:19.515Z,4.11
2022-12-08T22:58:22.277Z,4.18
2022-12-08T23:01:29.053Z,4.10
2022-12-08T23:04:32.054Z,4.06
2022-12-08T23:07:34.356Z,4.09
2022-12-08T23:10:36.812Z,4.26
2022-12-08T23:13:39.895Z,4.37
2022-12-08T23:16:42.650Z,4.36
2022-12-08T23:19:44.866Z,4.28
2022-12-08T23:22:47.393Z,4.11
2022-12-08T23:25:49.750Z,4.21
2022-12-08T23:28:52.766Z,4.23
2022-12-08T23:31:55.086Z,4.20
2022-12-08T23:34:57.889Z,4.23
2022-12-08T23:38:00.315Z,4.09
2022-12-08T23:41:05.590Z,4.17
2022-12-08T23:44:09.119Z,4.27
2022-12-08T23:47:11.910Z,4.44
2022-12-08T23:50:14.085Z,4.26
2022-12-08T23:53:17.009Z,4.19
2022-12-08T23:56:21.065Z,4.11
2022-12-08T23:59:24.770Z,4.19
